Machine Overzicht

Generator events en service beheer USB: 2592B8FD82A ×
Records
626
van 353,750
Machines
2
Starts
33
Warnings
385
25 resultaten · pagina 25 van 26
Dubbelklik service uren om te bewerken
ID Machine Gebeurtenis Tijd Uren Service Status USB ID
170269 30-007 Low Fuel Level Warning 07-10-2024 00:38:01 4,127 500 OVER BEURT URGENT! 2592B8FD82A
108621 30-007 Battery Voltage 13-09-2024 09:30:26 3,988 500 OVER BEURT URGENT! 2592B8FD82A
108622 30-007 Engine Stopped 13-09-2024 09:30:21 3,988 500 OVER BEURT URGENT! 2592B8FD82A
108620 30-007 kW Overload Alarm Electrical Trip 13-09-2024 09:29:30 3,988 500 OVER BEURT URGENT! 2592B8FD82A
108075 30-007 Engine Stopped 10-09-2024 17:00:41 3,981 500 OVER BEURT URGENT! 2592B8FD82A
27184 30-007 Battery Voltage 04-09-2024 07:10:44 3,892 500 OVER BEURT URGENT! 2592B8FD82A
27154 30-007 Engine Stopped 03-09-2024 16:25:57 3,891 500 OVER BEURT URGENT! 2592B8FD82A
25974 30-007 Engine Stopped 31-08-2024 12:50:56 3,881 500 OVER BEURT URGENT! 2592B8FD82A
25972 30-007 Generator Over Current Warning 31-08-2024 12:38:40 3,881 500 OVER BEURT URGENT! 2592B8FD82A
25944 30-007 Battery Voltage 31-08-2024 10:54:14 3,879 500 OVER BEURT URGENT! 2592B8FD82A
25941 30-007 Engine Stopped 31-08-2024 10:34:29 3,879 500 OVER BEURT URGENT! 2592B8FD82A
5068 30-007 Generator Over Current Warning 19-08-2024 12:16:32 3,877 500 OVER BEURT URGENT! 2592B8FD82A
4889 30-007 Generator Over Current Warning 18-08-2024 17:24:02 3,858 500 OVER BEURT URGENT! 2592B8FD82A
4720 30-007 Generator Over Current Warning 17-08-2024 12:22:21 3,829 500 OVER BEURT URGENT! 2592B8FD82A
4697 30-007 Generator Over Current Warning 17-08-2024 10:53:35 3,828 500 OVER BEURT URGENT! 2592B8FD82A
4665 30-007 Generator Over Current Warning 17-08-2024 06:42:05 3,824 500 OVER BEURT URGENT! 2592B8FD82A
4623 30-007 Generator Over Current Warning 16-08-2024 19:10:02 3,812 500 OVER BEURT URGENT! 2592B8FD82A
4620 30-007 Generator Over Current Warning 16-08-2024 19:08:41 3,812 500 OVER BEURT URGENT! 2592B8FD82A
4619 30-007 Generator Over Current Warning 16-08-2024 19:06:56 3,812 500 OVER BEURT URGENT! 2592B8FD82A
4618 30-007 Generator Over Current Warning 16-08-2024 19:02:45 3,812 500 OVER BEURT URGENT! 2592B8FD82A
2541 30-007 Engine Stopped 11-08-2024 15:25:44 3,759 500 OVER BEURT URGENT! 2592B8FD82A
2458 30-007 Engine Stopped 10-08-2024 15:58:05 3,755 500 OVER BEURT URGENT! 2592B8FD82A
2422 30-007 Battery Voltage 10-08-2024 09:59:34 3,749 500 OVER BEURT URGENT! 2592B8FD82A
2419 30-007 Engine Stopped 10-08-2024 08:50:54 3,749 500 OVER BEURT URGENT! 2592B8FD82A
2418 30-007 Engine Stopped 10-08-2024 08:36:32 3,748 500 OVER BEURT URGENT! 2592B8FD82A
601–625 van 626